Time;durP1;ratioP1;P1;durP2;ratioP2;P2;SDS_P1;SDS_P2;PMS_P1;PMS_P2;Temp;Humidity;BMP_temperature;BMP_pressure;BME280_temperature;BME280_humidity;BME280_pressure;Samples;Min_cycle;Max_cycle;Signal;HPM_P1;HPM_P2
2023/07/26 00:01:46;;;;;;;9.10;6.15;;;;;;;28.03;43.52;93783.69;6129610;23;20156;-66
2023/07/26 00:04:12;;;;;;;10.32;7.03;;;;;;;28.05;42.94;93786.81;6129631;23;20170;-66
2023/07/26 00:06:39;;;;;;;10.10;5.97;;;;;;;28.05;43.04;93797.38;6128028;23;20179;-67
2023/07/26 00:09:07;;;;;;;12.25;6.57;;;;;;;28.04;43.75;93816.44;6128633;23;20181;-68
2023/07/26 00:11:37;;;;;;;7.55;5.95;;;;;;;28.03;43.54;93797.06;6128218;23;20184;-67
2023/07/26 00:14:04;;;;;;;8.30;6.32;;;;;;;28.03;43.37;93777.22;6128771;23;20164;-66
2023/07/26 00:16:31;;;;;;;10.73;6.72;;;;;;;28.03;45.11;93786.53;6128416;23;20584;-66
2023/07/26 00:18:58;;;;;;;9.00;6.18;;;;;;;27.96;45.12;93786.97;6129629;23;20191;-66
2023/07/26 00:21:25;;;;;;;12.55;6.82;;;;;;;27.88;46.05;93783.00;6129408;23;20163;-66
2023/07/26 00:23:52;;;;;;;11.55;6.45;;;;;;;27.88;45.71;93776.53;6128401;23;20176;-67
2023/07/26 00:26:18;;;;;;;10.48;6.70;;;;;;;27.83;45.97;93772.38;6128583;23;20172;-66
2023/07/26 00:28:46;;;;;;;10.15;6.20;;;;;;;27.86;45.55;93785.56;6128443;23;20172;-67
2023/07/26 00:31:13;;;;;;;9.10;6.60;;;;;;;27.87;46.33;93778.59;6128497;23;20176;-67
2023/07/26 00:33:40;;;;;;;11.32;6.78;;;;;;;27.83;46.50;93781.66;6129196;23;20172;-66
2023/07/26 00:36:08;;;;;;;10.18;6.72;;;;;;;27.78;46.91;93782.38;6128235;23;20569;-67
2023/07/26 00:38:34;;;;;;;8.75;7.00;;;;;;;27.76;46.79;93770.75;6129424;23;20167;-67
2023/07/26 00:41:20;;;;;;;9.25;6.35;;;;;;;27.72;47.03;93767.31;6138518;23;20181;-66
2023/07/26 00:43:48;;;;;;;8.38;6.53;;;;;;;27.67;47.47;93784.25;6128149;23;20191;-65
2023/07/26 00:46:14;;;;;;;10.45;6.35;;;;;;;27.67;46.69;93764.41;6128039;23;20214;-65
2023/07/26 00:48:42;;;;;;;9.45;6.95;;;;;;;27.70;47.52;93775.53;6128846;23;20171;-65
2023/07/26 00:51:09;;;;;;;8.27;6.50;;;;;;;27.66;47.38;93774.97;6129275;23;20573;-65
2023/07/26 00:53:36;;;;;;;8.15;6.22;;;;;;;27.67;47.36;93764.41;6127771;23;20176;-65
2023/07/26 00:56:04;;;;;;;10.20;6.35;;;;;;;27.65;47.13;93758.47;6128969;23;20568;-65
2023/07/26 00:58:30;;;;;;;9.23;6.63;;;;;;;27.63;47.83;93750.47;6129674;23;20167;-65
2023/07/26 01:01:00;;;;;;;9.35;6.22;;;;;;;27.56;47.28;93750.88;6138870;23;20179;-65
2023/07/26 01:03:26;;;;;;;11.25;6.43;;;;;;;27.53;47.75;93755.50;6129008;23;20160;-65
2023/07/26 01:06:05;;;;;;;9.07;6.43;;;;;;;27.52;47.69;93762.44;6128152;23;20175;-66
2023/07/26 01:08:38;;;;;;;7.45;6.63;;;;;;;27.51;47.72;93769.38;6127960;23;20175;-66
2023/07/26 01:11:07;;;;;;;11.98;6.32;;;;;;;27.52;47.72;93762.44;6127801;23;20620;-67
2023/07/26 01:13:40;;;;;;;9.80;6.50;;;;;;;27.53;47.92;93754.72;6127573;23;20184;-67
2023/07/26 01:16:09;;;;;;;8.95;7.03;;;;;;;27.48;48.25;93759.03;6129012;23;20231;-67
2023/07/26 01:18:38;;;;;;;8.82;6.72;;;;;;;27.46;48.81;93755.16;6128167;23;20176;-67
2023/07/26 01:21:05;;;;;;;9.75;6.45;;;;;;;27.40;48.30;93743.75;6127430;23;20184;-66
2023/07/26 01:23:33;;;;;;;9.65;6.53;;;;;;;27.36;48.56;93743.19;6127749;23;20168;-66
2023/07/26 01:26:00;;;;;;;10.88;7.13;;;;;;;27.36;48.21;93754.50;6128026;23;20262;-66
2023/07/26 01:28:27;;;;;;;7.60;5.97;;;;;;;27.36;48.11;93734.69;6138326;23;20171;-66
2023/07/26 01:30:54;;;;;;;7.57;6.18;;;;;;;27.36;49.02;93740.34;6127998;23;20242;-66
2023/07/26 01:33:21;;;;;;;10.68;6.30;;;;;;;27.27;48.60;93751.78;6127234;23;20223;-66
2023/07/26 01:35:48;;;;;;;8.55;6.18;;;;;;;27.27;48.29;93715.81;6138212;23;20585;-66
2023/07/26 01:38:15;;;;;;;9.27;7.18;;;;;;;27.33;48.23;93730.00;6128851;23;20163;-67
2023/07/26 01:40:46;;;;;;;8.27;6.97;;;;;;;27.28;48.30;93727.91;6128822;23;20175;-67
2023/07/26 01:43:13;;;;;;;9.98;6.63;;;;;;;27.24;48.32;93721.66;6127706;23;20171;-67
2023/07/26 01:45:39;;;;;;;9.25;6.72;;;;;;;27.26;48.78;93724.78;6128520;23;20215;-67
2023/07/26 01:48:06;;;;;;;10.02;6.45;;;;;;;27.24;48.56;93725.28;6128887;23;20186;-67
2023/07/26 01:50:33;;;;;;;10.90;6.50;;;;;;;27.25;49.13;93712.69;6138482;23;20183;-67
2023/07/26 01:53:00;;;;;;;9.00;6.60;;;;;;;27.29;48.87;93718.91;6127446;23;20188;-67
2023/07/26 01:55:27;;;;;;;8.77;6.45;;;;;;;27.19;49.90;93708.97;6131036;23;20168;-67
2023/07/26 01:57:55;;;;;;;7.05;6.25;;;;;;;27.14;49.70;93720.25;6129540;23;20227;-67
2023/07/26 02:00:22;;;;;;;10.52;6.72;;;;;;;27.12;50.19;93700.91;6129773;23;20524;-67
2023/07/26 02:02:49;;;;;;;11.30;7.10;;;;;;;27.03;50.47;93715.94;6130860;23;20172;-67
2023/07/26 02:05:16;;;;;;;10.15;7.15;;;;;;;26.99;50.72;93701.22;6130747;23;20230;-67
2023/07/26 02:07:43;;;;;;;11.70;7.40;;;;;;;26.99;50.23;93697.63;6130650;23;20156;-67
2023/07/26 02:10:11;;;;;;;10.55;7.10;;;;;;;26.98;50.51;93704.53;6129791;23;20179;-66
2023/07/26 02:12:38;;;;;;;9.30;6.70;;;;;;;26.98;51.01;93710.19;6129698;23;20192;-66
2023/07/26 02:15:07;;;;;;;9.90;7.03;;;;;;;26.94;50.69;93706.78;6129141;23;20171;-67
2023/07/26 02:17:34;;;;;;;9.40;6.97;;;;;;;27.01;50.22;93712.81;6128524;23;20220;-67
2023/07/26 02:20:02;;;;;;;9.18;7.05;;;;;;;26.96;50.66;93716.34;6130538;23;20171;-67
2023/07/26 02:22:29;;;;;;;10.88;7.10;;;;;;;26.98;50.30;93716.66;6130542;23;20179;-66
2023/07/26 02:24:56;;;;;;;11.18;7.05;;;;;;;27.02;50.18;93717.22;6130442;23;20163;-65
2023/07/26 02:27:23;;;;;;;9.20;6.65;;;;;;;27.07;49.38;93710.84;6129283;23;20568;-65
2023/07/26 02:29:49;;;;;;;10.57;7.28;;;;;;;27.16;48.81;93700.69;6140318;23;20223;-65
2023/07/26 02:32:17;;;;;;;11.18;7.40;;;;;;;27.20;48.75;93704.91;6129370;23;20198;-65
2023/07/26 02:34:44;;;;;;;7.65;6.88;;;;;;;27.20;49.08;93704.09;6130393;23;20160;-65
2023/07/26 02:37:11;;;;;;;8.75;6.80;;;;;;;27.24;47.64;93704.69;6140192;23;20168;-65
2023/07/26 02:39:38;;;;;;;7.97;6.53;;;;;;;27.28;45.61;93711.69;6129411;23;20172;-65
2023/07/26 02:42:05;;;;;;;9.77;6.95;;;;;;;27.31;46.47;93699.38;6129333;23;20172;-65
2023/07/26 02:44:32;;;;;;;11.60;7.13;;;;;;;27.30;46.79;93708.34;6128646;23;20171;-65
2023/07/26 02:46:59;;;;;;;10.32;6.88;;;;;;;27.29;47.01;93721.72;6130173;23;20172;-66
2023/07/26 02:49:27;;;;;;;10.45;6.75;;;;;;;27.26;45.43;93714.22;6129113;23;20172;-65
2023/07/26 02:51:53;;;;;;;10.25;6.47;;;;;;;27.35;45.21;93724.66;6129287;23;20175;-66
2023/07/26 02:54:20;;;;;;;10.93;6.95;;;;;;;27.36;44.95;93735.47;6129467;23;20588;-66
2023/07/26 02:56:47;;;;;;;9.13;6.60;;;;;;;27.41;44.61;93742.47;6136948;23;20179;-66
2023/07/26 02:59:14;;;;;;;11.10;7.40;;;;;;;27.39;43.36;93736.53;6129966;23;20158;-67
2023/07/26 03:01:41;;;;;;;12.32;7.32;;;;;;;27.47;42.70;93736.88;6129101;23;20184;-67
2023/07/26 03:04:07;;;;;;;12.50;7.70;;;;;;;27.56;41.59;93739.56;6129163;23;20164;-68
2023/07/26 03:06:35;;;;;;;11.18;7.10;;;;;;;27.69;41.23;93747.72;6129312;23;20176;-69
2023/07/26 03:09:02;;;;;;;13.75;7.63;;;;;;;27.85;40.67;93741.47;6130157;23;20190;-69
2023/07/26 03:11:29;;;;;;;12.40;7.18;;;;;;;27.93;40.71;93742.63;6129672;23;20171;-69
2023/07/26 03:13:56;;;;;;;13.27;7.07;;;;;;;27.99;40.67;93728.50;6128784;23;20195;-68
2023/07/26 03:16:23;;;;;;;8.32;6.47;;;;;;;28.00;40.68;93733.69;6129161;23;20624;-69
2023/07/26 03:18:50;;;;;;;9.63;6.70;;;;;;;28.02;40.91;93727.50;6128538;23;20577;-69
2023/07/26 03:21:17;;;;;;;12.23;7.00;;;;;;;28.01;40.71;93734.47;6130000;23;20178;-69
2023/07/26 03:23:45;;;;;;;10.32;7.03;;;;;;;28.03;40.29;93727.03;6128771;23;20168;-69
2023/07/26 03:26:12;;;;;;;7.53;6.30;;;;;;;28.04;40.50;93727.81;6128885;23;20186;-69
2023/07/26 03:28:39;;;;;;;12.73;7.47;;;;;;;28.04;40.35;93739.91;6128757;23;20557;-68
2023/07/26 03:31:06;;;;;;;10.63;7.15;;;;;;;28.04;40.24;93731.41;6128963;23;20186;-68
2023/07/26 03:33:34;;;;;;;16.05;7.07;;;;;;;28.04;41.79;93724.97;6128639;23;20199;-67
2023/07/26 03:36:00;;;;;;;9.23;6.75;;;;;;;28.00;44.01;93738.59;6128748;23;20527;-66
2023/07/26 03:38:27;;;;;;;9.30;7.13;;;;;;;27.72;46.26;93741.06;6128473;23;20164;-67
2023/07/26 03:40:55;;;;;;;13.02;6.85;;;;;;;27.40;47.78;93742.97;6129806;23;20168;-66
2023/07/26 03:43:22;;;;;;;10.18;6.45;;;;;;;27.31;47.78;93744.66;6128653;23;20178;-67
2023/07/26 03:45:49;;;;;;;12.02;6.82;;;;;;;27.39;47.80;93741.41;6128401;23;20204;-67
2023/07/26 03:48:16;;;;;;;10.50;7.00;;;;;;;27.44;47.36;93760.53;6128164;23;20188;-67
2023/07/26 03:50:43;;;;;;;10.48;7.07;;;;;;;27.45;47.38;93750.75;6128561;23;20180;-67
2023/07/26 03:53:09;;;;;;;9.30;6.88;;;;;;;27.40;48.41;93763.56;6128520;23;20245;-67
2023/07/26 03:55:36;;;;;;;10.52;7.68;;;;;;;27.21;49.18;93767.94;6129530;23;20171;-67
2023/07/26 03:58:04;;;;;;;7.97;7.18;;;;;;;27.14;49.35;93779.66;6128087;23;20584;-67
2023/07/26 04:00:31;;;;;;;12.93;8.93;;;;;;;27.04;49.56;93770.47;6128739;23;20199;-69
2023/07/26 04:02:58;;;;;;;18.45;14.50;;;;;;;27.00;49.55;93775.56;6128114;23;20164;-68
2023/07/26 04:05:24;;;;;;;10.85;8.32;;;;;;;26.97;50.10;93779.38;6128299;23;20180;-68
2023/07/26 04:07:51;;;;;;;9.10;8.10;;;;;;;26.86;49.94;93783.59;6128905;23;20171;-68
2023/07/26 04:10:18;;;;;;;11.05;9.32;;;;;;;26.97;50.04;93787.88;6128445;23;20553;-68
2023/07/26 04:12:44;;;;;;;11.85;7.55;;;;;;;26.98;50.25;93787.38;6128502;23;20192;-68
2023/07/26 04:15:13;;;;;;;12.23;7.97;;;;;;;26.88;50.31;93798.03;6129537;23;20226;-68
2023/07/26 04:17:39;;;;;;;12.05;8.13;;;;;;;26.79;50.88;93795.28;6127949;23;20227;-68
2023/07/26 04:20:08;;;;;;;11.02;7.78;;;;;;;26.74;51.06;93789.56;6128887;23;20187;-68
2023/07/26 04:22:35;;;;;;;12.10;8.77;;;;;;;26.82;50.41;93768.88;6128410;23;20168;-68
2023/07/26 04:25:02;;;;;;;9.55;7.22;;;;;;;26.80;51.05;93785.56;6127241;23;20581;-68
2023/07/26 04:27:29;;;;;;;13.05;7.70;;;;;;;26.72;52.06;93792.88;6138814;23;20160;-68
2023/07/26 04:29:55;;;;;;;10.23;7.47;;;;;;;26.74;51.32;93779.03;6129385;23;20164;-68
2023/07/26 04:32:23;;;;;;;11.90;8.32;;;;;;;26.75;52.43;93783.41;6128198;23;20176;-68
2023/07/26 04:34:50;;;;;;;9.07;6.53;;;;;;;26.68;51.59;93769.66;6127228;23;20202;-68
2023/07/26 04:37:17;;;;;;;11.10;7.63;;;;;;;26.74;52.62;93781.06;6138974;23;20172;-68
2023/07/26 04:39:46;;;;;;;11.23;8.00;;;;;;;26.67;52.75;93790.72;6129224;23;20168;-68
2023/07/26 04:42:13;;;;;;;9.63;7.55;;;;;;;26.66;52.57;93763.72;6138932;23;20176;-68
2023/07/26 04:44:39;;;;;;;11.25;8.45;;;;;;;26.78;52.64;93767.50;6128896;23;20613;-68
2023/07/26 04:47:06;;;;;;;8.88;6.95;;;;;;;26.76;53.05;93767.22;6129227;23;20164;-68
2023/07/26 04:49:34;;;;;;;13.93;8.27;;;;;;;26.72;53.48;93764.59;6127741;23;20183;-67
2023/07/26 04:52:01;;;;;;;11.93;7.30;;;;;;;26.66;53.56;93760.13;6128808;23;20160;-68
2023/07/26 04:54:28;;;;;;;12.65;8.48;;;;;;;26.70;54.16;93789.75;6129076;23;20224;-69
2023/07/26 04:56:54;;;;;;;11.20;7.93;;;;;;;26.70;53.42;93772.78;6128227;23;20186;-68
2023/07/26 04:59:21;;;;;;;14.57;8.52;;;;;;;26.73;53.49;93760.50;6128934;23;20175;-68
2023/07/26 05:01:48;;;;;;;11.35;7.43;;;;;;;26.83;53.01;93735.69;6128101;23;20171;-68
2023/07/26 05:04:14;;;;;;;10.93;8.57;;;;;;;26.89;53.77;93757.16;6128640;23;20160;-68
2023/07/26 05:06:43;;;;;;;11.32;8.77;;;;;;;26.83;53.82;93766.81;6138331;23;20194;-68
2023/07/26 05:09:09;;;;;;;13.45;8.85;;;;;;;26.89;53.72;93776.94;6138724;23;20234;-68
2023/07/26 05:11:36;;;;;;;11.40;8.10;;;;;;;26.94;53.42;93752.06;6128054;23;20168;-68
2023/07/26 05:14:04;;;;;;;10.70;7.95;;;;;;;27.07;52.96;93761.00;6128290;23;20196;-68
2023/07/26 05:16:31;;;;;;;10.77;7.80;;;;;;;27.10;53.84;93763.63;6139024;23;20164;-68
2023/07/26 05:18:59;;;;;;;8.43;7.40;;;;;;;27.12;53.50;93760.34;6138379;23;20226;-68
2023/07/26 05:21:25;;;;;;;10.73;7.65;;;;;;;27.07;53.59;93772.34;6129000;23;20164;-68
2023/07/26 05:23:53;;;;;;;12.18;7.55;;;;;;;27.09;53.62;93747.94;6128944;23;20178;-68
2023/07/26 05:26:20;;;;;;;11.45;8.57;;;;;;;27.18;53.04;93755.53;6128913;23;20160;-68
2023/07/26 05:28:47;;;;;;;12.35;8.10;;;;;;;27.27;52.49;93758.25;6127113;23;20211;-68
2023/07/26 05:31:14;;;;;;;13.27;7.82;;;;;;;27.31;52.69;93741.84;6128880;23;20168;-67
2023/07/26 05:33:41;;;;;;;12.98;7.90;;;;;;;27.32;52.91;93748.28;6127338;23;20199;-67
2023/07/26 05:36:08;;;;;;;11.50;7.93;;;;;;;27.30;52.75;93745.16;6128877;23;20160;-67
2023/07/26 05:38:35;;;;;;;9.65;7.78;;;;;;;27.25;53.49;93749.47;6128845;23;20164;-67
2023/07/26 05:41:04;;;;;;;10.32;7.88;;;;;;;27.19;54.11;93748.59;6128019;23;20617;-67
2023/07/26 05:43:31;;;;;;;12.45;8.55;;;;;;;27.11;54.36;93755.94;6128992;23;20186;-66
2023/07/26 05:45:58;;;;;;;11.35;7.75;;;;;;;27.08;51.84;93735.03;6128536;23;20270;-66
2023/07/26 05:48:25;;;;;;;11.02;7.38;;;;;;;27.12;52.30;93734.88;6128353;23;20167;-68
2023/07/26 05:50:52;;;;;;;11.55;7.07;;;;;;;27.13;50.54;93735.66;6127463;23;20180;-68
2023/07/26 05:53:19;;;;;;;12.30;7.40;;;;;;;27.12;48.70;93726.38;6138051;23;20183;-68
2023/07/26 05:55:46;;;;;;;14.88;7.90;;;;;;;27.18;40.13;93732.13;6127577;23;20175;-66
2023/07/26 05:58:14;;;;;;;12.50;6.85;;;;;;;27.25;40.72;93724.00;6129920;23;20180;-68
2023/07/26 06:00:41;;;;;;;12.85;6.97;;;;;;;27.34;40.39;93721.03;6128651;23;20182;-67
2023/07/26 06:03:08;;;;;;;13.50;8.07;;;;;;;27.36;40.08;93726.97;6138438;23;20160;-66
2023/07/26 06:05:34;;;;;;;13.63;7.18;;;;;;;27.48;39.40;93710.13;6127640;23;20175;-67
2023/07/26 06:08:01;;;;;;;15.70;6.90;;;;;;;27.52;41.83;93707.84;6127415;23;20183;-67
2023/07/26 06:10:28;;;;;;;12.98;6.82;;;;;;;27.55;38.51;93721.03;6127380;23;20478;-67
2023/07/26 06:12:55;;;;;;;13.30;7.85;;;;;;;27.59;40.03;93721.59;6128619;23;20171;-67
2023/07/26 06:15:23;;;;;;;12.02;7.78;;;;;;;27.57;42.50;93729.81;6127358;23;20167;-67
2023/07/26 06:17:50;;;;;;;14.00;7.95;;;;;;;27.58;37.62;93728.53;6138507;23;20191;-66
2023/07/26 06:20:17;;;;;;;11.15;7.63;;;;;;;27.69;37.02;93731.50;6128039;23;20588;-67
2023/07/26 06:22:44;;;;;;;13.48;7.45;;;;;;;27.77;36.52;93726.19;6138723;23;20172;-67
2023/07/26 06:25:11;;;;;;;13.10;6.60;;;;;;;27.78;37.00;93717.22;6127703;23;20167;-67
2023/07/26 06:27:38;;;;;;;13.02;6.78;;;;;;;27.91;36.10;93716.06;6127557;23;20183;-67
2023/07/26 06:30:05;;;;;;;14.90;7.35;;;;;;;28.05;35.21;93730.13;6138215;23;20651;-67
2023/07/26 06:32:33;;;;;;;13.38;6.80;;;;;;;28.09;36.00;93707.22;6128780;23;20187;-67
2023/07/26 06:35:00;;;;;;;13.68;7.95;;;;;;;28.09;35.82;93718.56;6127289;23;20613;-67
2023/07/26 06:37:27;;;;;;;12.90;7.20;;;;;;;28.22;34.72;93752.22;6128478;23;20164;-67
2023/07/26 06:39:54;;;;;;;14.35;7.10;;;;;;;28.33;34.63;93720.34;6129198;23;20187;-66
2023/07/26 06:42:20;;;;;;;10.18;7.10;;;;;;;28.39;34.02;93709.84;6130702;23;20167;-68
2023/07/26 06:44:47;;;;;;;15.68;6.90;;;;;;;28.43;34.21;93727.41;6129142;23;20212;-69
2023/07/26 06:47:14;;;;;;;18.17;6.90;;;;;;;28.53;33.05;93745.81;6129927;23;20485;-67
2023/07/26 06:49:42;;;;;;;20.20;7.38;;;;;;;28.63;33.90;93721.66;6128798;23;20238;-67
2023/07/26 06:52:09;;;;;;;15.25;8.25;;;;;;;28.69;33.20;93727.41;6129176;23;20175;-67
2023/07/26 06:54:39;;;;;;;18.63;7.97;;;;;;;28.71;32.61;93745.44;6128883;23;20203;-67
2023/07/26 06:57:07;;;;;;;12.88;7.22;;;;;;;28.70;33.28;93743.13;6130220;23;20567;-67
2023/07/26 06:59:33;;;;;;;12.73;7.10;;;;;;;28.74;33.23;93741.63;6130175;23;20156;-66
2023/07/26 07:02:00;;;;;;;13.52;8.05;;;;;;;28.76;34.41;93755.31;6129402;23;20179;-67
2023/07/26 07:04:27;;;;;;;13.38;7.20;;;;;;;28.80;34.22;93741.66;6139862;23;20592;-67
2023/07/26 07:06:55;;;;;;;10.95;6.85;;;;;;;28.78;34.85;93739.31;6128936;23;20168;-67
2023/07/26 07:09:24;;;;;;;15.07;7.63;;;;;;;28.86;35.75;93738.84;6130107;23;20156;-67
2023/07/26 07:11:50;;;;;;;13.20;7.30;;;;;;;28.86;36.08;93733.97;6129549;23;20172;-67
2023/07/26 07:14:18;;;;;;;12.57;6.90;;;;;;;28.87;36.38;93741.22;6139870;23;20196;-67
2023/07/26 07:16:45;;;;;;;13.13;7.40;;;;;;;28.95;35.82;93747.97;6129211;23;20178;-67
2023/07/26 07:19:11;;;;;;;13.63;7.05;;;;;;;28.93;36.28;93744.84;6130326;23;20164;-67
2023/07/26 07:21:38;;;;;;;10.95;6.80;;;;;;;28.99;36.25;93747.75;6139507;23;20195;-67
2023/07/26 07:24:06;;;;;;;15.95;7.22;;;;;;;28.99;36.54;93742.09;6128476;23;20172;-67
2023/07/26 07:26:33;;;;;;;12.77;8.00;;;;;;;28.99;36.61;93747.75;6128526;23;20176;-67
2023/07/26 07:29:00;;;;;;;13.05;7.88;;;;;;;29.09;36.87;93754.03;6128995;23;20179;-67
2023/07/26 07:31:27;;;;;;;15.13;7.18;;;;;;;29.16;36.03;93757.19;6129534;23;20160;-67
2023/07/26 07:33:53;;;;;;;13.88;7.25;;;;;;;29.19;36.29;93747.63;6129837;23;20190;-67
2023/07/26 07:36:20;;;;;;;14.43;7.05;;;;;;;29.25;36.08;93747.66;6128908;23;20172;-67
2023/07/26 07:38:47;;;;;;;13.98;6.32;;;;;;;29.28;36.54;93743.81;6129809;23;20168;-67
2023/07/26 07:41:16;;;;;;;9.98;6.70;;;;;;;29.30;36.46;93754.66;6129911;23;20186;-67
2023/07/26 07:43:42;;;;;;;12.77;6.60;;;;;;;29.29;36.82;93742.53;6129759;23;20179;-67
2023/07/26 07:46:09;;;;;;;15.63;7.65;;;;;;;29.31;37.20;93748.50;6129690;23;20211;-67
2023/07/26 07:48:37;;;;;;;16.00;7.00;;;;;;;29.44;35.66;93736.66;6129744;23;20156;-67
2023/07/26 07:51:05;;;;;;;11.30;6.82;;;;;;;29.46;36.60;93736.94;6128135;23;20175;-67
2023/07/26 07:53:31;;;;;;;11.32;7.03;;;;;;;29.49;35.59;93739.56;6129151;23;20565;-67
2023/07/26 07:55:58;;;;;;;14.38;7.15;;;;;;;29.49;36.44;93735.94;6129873;23;20176;-67
2023/07/26 07:58:27;;;;;;;11.82;6.78;;;;;;;29.51;36.69;93731.28;6128406;23;20190;-67
2023/07/26 08:00:58;;;;;;;11.25;6.70;;;;;;;29.56;36.52;93741.13;6129621;23;20171;-67
2023/07/26 08:03:24;;;;;;;13.13;7.18;;;;;;;29.66;35.95;93748.16;6129417;23;20168;-67
2023/07/26 08:05:51;;;;;;;10.68;6.32;;;;;;;29.72;35.15;93742.53;6129791;23;20171;-67
2023/07/26 08:08:18;;;;;;;12.40;6.95;;;;;;;29.78;35.53;93740.50;6129642;23;20184;-67
2023/07/26 08:10:45;;;;;;;15.63;7.20;;;;;;;29.88;33.08;93738.94;6129472;23;20164;-67
2023/07/26 08:13:12;;;;;;;11.70;6.50;;;;;;;30.02;32.01;93742.09;6128030;23;20207;-67
2023/07/26 08:15:40;;;;;;;10.23;6.75;;;;;;;30.14;31.97;93743.69;6128149;23;20180;-67
2023/07/26 08:18:07;;;;;;;13.90;6.28;;;;;;;30.23;31.44;93734.19;6138882;23;20186;-67
2023/07/26 08:20:34;;;;;;;11.80;5.93;;;;;;;30.29;29.38;93737.81;6128116;23;20592;-67
2023/07/26 08:23:01;;;;;;;12.52;6.03;;;;;;;30.39;29.36;93764.72;6128494;23;20172;-67
2023/07/26 08:25:28;;;;;;;11.50;5.32;;;;;;;30.45;27.39;93742.75;6128159;23;20175;-67
2023/07/26 08:27:54;;;;;;;10.98;5.70;;;;;;;30.55;26.84;93738.38;6128388;23;20179;-67
2023/07/26 08:30:22;;;;;;;10.55;6.28;;;;;;;30.67;27.09;93717.16;6128291;23;20176;-67
2023/07/26 08:32:50;;;;;;;11.73;5.65;;;;;;;30.74;27.39;93738.63;6127914;23;20467;-67
2023/07/26 08:35:17;;;;;;;11.65;5.40;;;;;;;30.76;26.54;93719.00;6129219;23;20231;-67
2023/07/26 08:37:44;;;;;;;12.32;5.70;;;;;;;30.75;27.44;93728.81;6129213;23;20183;-67
2023/07/26 08:40:11;;;;;;;9.90;6.35;;;;;;;30.81;27.74;93732.44;6127947;23;20581;-67
2023/07/26 08:42:39;;;;;;;12.80;5.72;;;;;;;30.96;26.27;93729.34;6128168;23;20156;-67
2023/07/26 08:45:07;;;;;;;10.60;6.03;;;;;;;31.03;26.82;93742.28;6138373;23;20217;-67
2023/07/26 08:47:36;;;;;;;11.27;5.35;;;;;;;31.05;25.85;93731.94;6129197;23;20160;-67
2023/07/26 08:50:05;;;;;;;9.68;5.13;;;;;;;31.00;26.86;93718.47;6128794;23;20160;-67
2023/07/26 08:52:33;;;;;;;12.27;5.72;;;;;;;31.00;26.44;93731.91;6128370;23;20686;-67
2023/07/26 08:55:00;;;;;;;12.23;5.90;;;;;;;31.09;26.26;93726.75;6128172;23;20262;-67
2023/07/26 08:57:27;;;;;;;8.40;4.88;;;;;;;31.16;26.17;93731.13;6127931;23;20184;-67
2023/07/26 08:59:54;;;;;;;9.85;5.00;;;;;;;31.20;26.30;93714.56;6129095;23;20227;-67
2023/07/26 09:02:21;;;;;;;10.90;5.45;;;;;;;31.34;26.38;93758.31;6127793;23;20175;-67
2023/07/26 09:04:48;;;;;;;13.07;5.38;;;;;;;31.37;26.29;93735.28;6139079;23;20176;-67
2023/07/26 09:07:16;;;;;;;10.02;5.68;;;;;;;31.40;26.76;93739.91;6128091;23;20176;-67
2023/07/26 09:09:43;;;;;;;10.13;5.60;;;;;;;31.47;27.66;93729.28;6127947;23;20179;-67
2023/07/26 09:12:10;;;;;;;12.55;6.03;;;;;;;31.60;27.05;93738.81;6129275;23;20183;-67
2023/07/26 09:14:36;;;;;;;11.10;5.57;;;;;;;31.62;27.00;93739.06;6127812;23;20270;-67
2023/07/26 09:17:05;;;;;;;9.32;5.70;;;;;;;31.64;27.24;93736.47;6128082;23;20176;-67
2023/07/26 09:19:34;;;;;;;15.35;5.85;;;;;;;31.73;26.94;93757.44;6128915;23;20191;-67
2023/07/26 09:22:02;;;;;;;14.57;5.85;;;;;;;31.77;26.79;93735.13;6128912;23;20172;-67
2023/07/26 09:24:33;;;;;;;13.65;5.63;;;;;;;31.80;27.39;93719.81;6128166;23;20182;-67
2023/07/26 09:27:04;;;;;;;12.18;6.45;;;;;;;31.86;27.58;93718.53;6128828;23;20628;-67
2023/07/26 09:29:31;;;;;;;11.15;6.20;;;;;;;31.97;27.33;93742.59;6129111;23;20168;-67
2023/07/26 09:31:57;;;;;;;11.60;5.10;;;;;;;32.08;26.70;93731.13;6127953;23;20180;-67
2023/07/26 09:34:24;;;;;;;8.63;5.05;;;;;;;32.12;27.21;93728.78;6127519;23;20204;-67
2023/07/26 09:36:52;;;;;;;8.02;5.38;;;;;;;32.17;27.69;93736.50;6138380;23;20171;-68
2023/07/26 09:39:19;;;;;;;14.00;5.72;;;;;;;32.23;27.95;93742.97;6128776;23;20199;-67
2023/07/26 09:41:49;;;;;;;9.25;5.63;;;;;;;32.28;27.29;93767.06;6138242;23;20176;-67
2023/07/26 09:44:17;;;;;;;9.15;5.28;;;;;;;32.30;26.49;93738.78;6127666;23;20175;-66
2023/07/26 09:46:49;;;;;;;12.70;5.18;;;;;;;32.34;26.47;93747.84;6128824;23;20204;-66
2023/07/26 09:49:16;;;;;;;14.25;6.03;;;;;;;32.37;26.62;93732.53;6128786;23;20168;-66
2023/07/26 09:51:43;;;;;;;12.43;5.97;;;;;;;32.42;26.45;93736.66;6127539;23;20203;-66
2023/07/26 09:54:11;;;;;;;11.15;5.60;;;;;;;32.45;27.18;93736.38;6127590;23;20243;-66
2023/07/26 09:56:39;;;;;;;10.65;5.55;;;;;;;32.49;26.71;93736.88;6128795;23;20534;-66
2023/07/26 09:59:10;;;;;;;10.93;5.35;;;;;;;32.38;26.50;93728.34;6138367;23;20168;-66
2023/07/26 10:01:41;;;;;;;11.32;4.82;;;;;;;32.21;27.20;93724.81;6128360;23;20553;-66
2023/07/26 10:04:11;;;;;;;10.00;4.93;;;;;;;32.11;27.47;93724.38;6127608;23;20195;-66
2023/07/26 10:06:38;;;;;;;13.60;5.85;;;;;;;32.17;27.88;93732.88;6128783;23;20192;-66
2023/07/26 10:09:05;;;;;;;13.98;5.90;;;;;;;32.30;27.62;93719.59;6127772;23;20231;-66
2023/07/26 10:11:32;;;;;;;9.45;5.32;;;;;;;32.43;27.69;93724.75;6127513;23;20172;-66
2023/07/26 10:14:00;;;;;;;14.18;6.00;;;;;;;32.53;27.25;93722.31;6127772;23;20198;-66
2023/07/26 10:16:29;;;;;;;11.68;5.65;;;;;;;32.63;27.74;93715.00;6139945;23;20204;-66
2023/07/26 10:18:57;;;;;;;10.98;5.47;;;;;;;32.73;26.56;93696.22;6129862;23;20267;-66
2023/07/26 10:21:25;;;;;;;8.68;4.95;;;;;;;32.80;26.56;93695.66;6129467;23;20172;-66
2023/07/26 10:24:30;;;;;;;8.45;5.50;;;;;;;32.89;26.85;93714.50;6129654;23;20178;-66
2023/07/26 10:27:34;;;;;;;10.68;5.35;;;;;;;32.94;27.33;93696.59;6140048;23;20159;-66
2023/07/26 10:30:38;;;;;;;11.07;6.10;;;;;;;33.06;26.92;93705.84;6129467;23;20175;-66
2023/07/26 10:33:42;;;;;;;12.27;6.13;;;;;;;33.14;26.53;93706.00;6129070;23;20172;-66
2023/07/26 10:36:46;;;;;;;11.65;5.18;;;;;;;33.16;26.16;93712.75;6129584;23;20207;-66
2023/07/26 10:39:50;;;;;;;9.93;5.20;;;;;;;33.17;25.39;93696.38;6139958;23;20156;-66
2023/07/26 10:42:54;;;;;;;8.52;5.15;;;;;;;33.23;25.48;93700.72;6129533;23;20176;-66
2023/07/26 10:45:58;;;;;;;8.38;5.72;;;;;;;33.32;25.53;93699.59;6139815;23;20199;-66
2023/07/26 10:49:02;;;;;;;11.80;5.70;;;;;;;33.47;24.83;93699.19;6130020;23;20226;-66
2023/07/26 10:52:06;;;;;;;11.32;5.18;;;;;;;33.51;24.81;93689.00;6129172;23;20222;-66
2023/07/26 10:55:11;;;;;;;7.95;4.93;;;;;;;33.54;25.08;93684.31;6129188;23;20176;-66
2023/07/26 10:58:15;;;;;;;9.35;4.95;;;;;;;33.45;25.36;93685.44;6130059;23;20202;-66
2023/07/26 11:01:19;;;;;;;9.15;5.25;;;;;;;33.51;25.82;93676.81;6128864;23;20233;-66
2023/07/26 11:04:23;;;;;;;9.65;5.40;;;;;;;33.60;24.60;93675.69;6130409;23;20227;-66
2023/07/26 11:07:27;;;;;;;11.02;5.05;;;;;;;33.66;24.56;93679.22;6128880;23;20175;-67
2023/07/26 11:10:31;;;;;;;12.55;5.70;;;;;;;33.72;25.31;93680.72;6129481;23;20187;-66
2023/07/26 11:13:35;;;;;;;11.55;5.32;;;;;;;33.78;24.40;93694.94;6129011;23;20179;-66
2023/07/26 11:16:39;;;;;;;11.18;5.95;;;;;;;33.87;24.65;93696.66;6129634;23;20198;-66
2023/07/26 11:19:43;;;;;;;10.18;5.13;;;;;;;33.87;24.72;93699.50;6129065;23;20599;-66
2023/07/26 11:22:47;;;;;;;9.63;5.35;;;;;;;33.87;24.74;93685.97;6130012;23;20171;-66
2023/07/26 11:25:15;;;;;;;12.15;5.55;;;;;;;33.89;24.45;93676.88;6128953;23;20175;-66
2023/07/26 11:27:42;;;;;;;12.07;4.97;;;;;;;33.88;25.20;93684.69;6128922;23;20175;-66
2023/07/26 11:30:14;;;;;;;13.13;5.43;;;;;;;33.95;23.86;93684.06;6128920;23;20444;-66
2023/07/26 11:32:44;;;;;;;7.85;4.72;;;;;;;34.00;24.16;93688.19;6129159;23;20623;-66
2023/07/26 11:35:11;;;;;;;8.48;5.22;;;;;;;34.00;24.59;93671.03;6128880;23;20215;-66
2023/07/26 11:37:38;;;;;;;9.70;5.78;;;;;;;34.11;24.94;93676.59;6129859;23;20187;-66
2023/07/26 11:40:05;;;;;;;9.70;5.20;;;;;;;34.09;24.14;93673.50;6129061;23;20176;-67